Terminal Aerodrome Forecast
Issued by NWS

Home | Current Version | Previous Version | Graphics & Text | Print | Product List | Glossary On
Versions: 1 2 3 4 5 6 7 8 9 10 11 12 13 14 15 16 17
000
FTUS43 KLSX 231722
TAFSUS
TAF
KSUS 231722Z 2318/2418 14007KT P6SM -RA SCT015 BKN025
     FM232100 17010KT P6SM VCTS SCT025CB BKN050
     FM240100 16009KT P6SM SCT025 BKN080
     FM240700 16008KT P6SM VCTS SCT030CB OVC060
     FM241100 17009KT P6SM SCT050 BKN080=

USA.gov is the U.S. government's official web portal to all federal, state and local government web resources and services.